createdAt,value
2022-09-14T00:02:09.856Z,15.88
2022-09-14T00:04:41.978Z,15.83
2022-09-14T00:07:11.630Z,15.82
2022-09-14T00:09:41.716Z,15.79
2022-09-14T00:12:12.636Z,15.79
2022-09-14T00:14:42.127Z,15.80
2022-09-14T00:17:11.738Z,15.75
2022-09-14T00:19:41.139Z,15.75
2022-09-14T00:22:10.618Z,15.72
2022-09-14T00:24:40.073Z,15.76
2022-09-14T00:27:10.293Z,15.77
2022-09-14T00:29:41.173Z,15.79
2022-09-14T00:32:10.864Z,15.83
2022-09-14T00:34:40.381Z,15.87
2022-09-14T00:37:09.977Z,15.87
2022-09-14T00:39:39.716Z,15.85
2022-09-14T00:42:16.698Z,15.89
2022-09-14T00:45:20.566Z,15.91
2022-09-14T00:47:53.992Z,15.94
2022-09-14T00:50:23.818Z,16.00
2022-09-14T00:52:54.177Z,15.99
2022-09-14T00:55:24.872Z,16.00
2022-09-14T00:57:55.576Z,16.01
2022-09-14T01:00:31.135Z,15.99
2022-09-14T01:03:01.889Z,16.00
2022-09-14T01:05:52.274Z,15.99
2022-09-14T01:08:43.417Z,15.98
2022-09-14T01:11:50.977Z,16.02
2022-09-14T01:14:35.215Z,15.99
2022-09-14T01:17:14.578Z,15.94
2022-09-14T01:20:19.452Z,15.95
2022-09-14T01:23:03.807Z,15.96
2022-09-14T01:26:07.940Z,15.95
2022-09-14T01:28:44.874Z,15.95
2022-09-14T01:31:20.621Z,15.96
2022-09-14T01:34:00.796Z,15.98
2022-09-14T01:36:34.185Z,15.97
2022-09-14T01:39:05.107Z,15.94
2022-09-14T01:41:37.186Z,15.93
2022-09-14T01:44:16.268Z,15.93
2022-09-14T01:46:51.874Z,15.93
2022-09-14T01:49:28.432Z,15.94
2022-09-14T01:52:06.268Z,15.91
2022-09-14T01:54:43.305Z,15.90
2022-09-14T01:57:22.456Z,15.90
2022-09-14T01:59:59.644Z,15.89
2022-09-14T02:02:35.903Z,15.89
2022-09-14T02:05:14.108Z,15.91
2022-09-14T02:07:43.760Z,15.93
2022-09-14T02:10:16.552Z,15.92
2022-09-14T02:12:46.844Z,15.95
2022-09-14T02:15:18.244Z,15.94
2022-09-14T02:17:48.701Z,15.96
2022-09-14T02:20:25.894Z,15.98
2022-09-14T02:22:55.341Z,16.01
2022-09-14T02:25:24.860Z,16.02
2022-09-14T02:27:55.833Z,16.03
2022-09-14T02:30:29.617Z,16.05
2022-09-14T02:33:12.381Z,16.06
2022-09-14T02:35:50.030Z,16.10
2022-09-14T02:38:30.318Z,16.07
2022-09-14T02:41:10.996Z,16.03
2022-09-14T02:43:50.681Z,16.00
2022-09-14T02:46:42.733Z,15.97
2022-09-14T02:49:23.581Z,15.99
2022-09-14T02:52:04.696Z,15.99
2022-09-14T02:54:42.848Z,16.01
2022-09-14T02:57:12.320Z,16.02
2022-09-14T02:59:41.698Z,16.05
2022-09-14T03:02:12.608Z,16.10
2022-09-14T03:04:42.199Z,16.12
2022-09-14T03:07:11.753Z,16.12
2022-09-14T03:09:41.133Z,16.15
2022-09-14T03:12:10.537Z,16.16
2022-09-14T03:14:40.069Z,16.19
2022-09-14T03:17:16.875Z,16.20
2022-09-14T03:19:46.270Z,16.20
2022-09-14T03:22:15.669Z,16.20
2022-09-14T03:24:45.017Z,16.20
2022-09-14T03:27:14.372Z,16.20
2022-09-14T03:29:43.752Z,16.23
2022-09-14T03:32:13.160Z,16.21
2022-09-14T03:34:43.918Z,16.23
2022-09-14T03:37:13.585Z,16.23
2022-09-14T03:39:43.203Z,16.24
2022-09-14T03:42:12.650Z,16.26
2022-09-14T03:44:42.071Z,16.24
2022-09-14T03:47:11.526Z,16.25
2022-09-14T03:49:40.884Z,16.24
2022-09-14T03:52:11.684Z,16.24
2022-09-14T03:54:41.276Z,16.25
2022-09-14T03:57:11.096Z,16.28
2022-09-14T03:59:43.593Z,16.39
2022-09-14T04:02:13.127Z,16.39
2022-09-14T04:04:42.454Z,16.44
2022-09-14T04:07:13.176Z,16.55
2022-09-14T04:09:42.698Z,16.70
2022-09-14T04:12:12.121Z,16.72
2022-09-14T04:14:41.562Z,16.71
2022-09-14T04:17:10.994Z,16.74
2022-09-14T04:19:42.074Z,16.80
2022-09-14T04:22:12.921Z,16.80
2022-09-14T04:24:42.273Z,16.76
2022-09-14T04:27:11.652Z,16.73
2022-09-14T04:29:41.329Z,16.69
2022-09-14T04:32:10.891Z,16.67
2022-09-14T04:34:40.233Z,16.66
2022-09-14T04:37:09.836Z,16.64
2022-09-14T04:39:40.587Z,16.62
2022-09-14T04:42:10.287Z,16.64
2022-09-14T04:44:39.820Z,16.65
2022-09-14T04:47:09.190Z,16.67
2022-09-14T04:49:38.556Z,16.65
2022-09-14T04:52:07.960Z,16.64
2022-09-14T04:54:37.375Z,16.64
2022-09-14T04:57:08.306Z,16.61
2022-09-14T04:59:37.706Z,16.60
2022-09-14T05:02:07.208Z,16.59
2022-09-14T05:04:36.728Z,16.56
2022-09-14T05:07:06.165Z,16.54
2022-09-14T05:09:35.556Z,16.57
2022-09-14T05:12:05.232Z,16.59
2022-09-14T05:14:35.983Z,16.58
2022-09-14T05:17:05.746Z,16.59
2022-09-14T05:19:35.120Z,16.62
2022-09-14T05:22:04.808Z,16.63
2022-09-14T05:24:34.213Z,16.62
2022-09-14T05:27:03.669Z,16.63
2022-09-14T05:29:33.152Z,16.66
2022-09-14T05:32:04.498Z,16.64
2022-09-14T05:34:33.937Z,16.63
2022-09-14T05:37:03.378Z,16.64
2022-09-14T05:39:33.085Z,16.68
2022-09-14T05:42:02.504Z,16.68
2022-09-14T05:44:31.840Z,16.68
2022-09-14T05:47:01.210Z,16.71
2022-09-14T05:49:32.265Z,16.72
2022-09-14T05:52:01.641Z,16.73
2022-09-14T05:54:31.055Z,16.72
2022-09-14T05:57:00.489Z,16.74
2022-09-14T05:59:31.679Z,16.76
2022-09-14T06:02:01.138Z,16.82
2022-09-14T06:04:31.909Z,16.85
2022-09-14T06:07:17.861Z,16.94
2022-09-14T06:09:48.037Z,16.98
2022-09-14T06:12:17.438Z,17.03
2022-09-14T06:14:46.853Z,17.11
2022-09-14T06:17:16.282Z,17.17
2022-09-14T06:19:47.275Z,17.41
2022-09-14T06:22:16.692Z,17.55
2022-09-14T06:24:46.052Z,17.69
2022-09-14T06:27:15.708Z,17.84
2022-09-14T06:29:45.086Z,17.96
2022-09-14T06:32:14.544Z,18.15
2022-09-14T06:34:43.911Z,18.25
2022-09-14T06:37:14.843Z,18.45
2022-09-14T06:39:44.945Z,18.47
2022-09-14T06:42:14.431Z,18.47
2022-09-14T06:44:43.909Z,18.51
2022-09-14T06:47:13.236Z,18.56
2022-09-14T06:49:42.639Z,18.59
2022-09-14T06:52:12.034Z,18.67
2022-09-14T06:54:42.804Z,18.74
2022-09-14T06:57:12.170Z,18.84
2022-09-14T06:59:41.643Z,18.95
2022-09-14T07:02:13.594Z,19.04
2022-09-14T07:04:43.182Z,19.15
2022-09-14T07:07:12.810Z,19.20
2022-09-14T07:09:43.761Z,19.23
2022-09-14T07:12:13.170Z,19.25
2022-09-14T07:14:42.709Z,19.31
2022-09-14T07:17:12.054Z,19.37
2022-09-14T07:19:41.516Z,19.50
2022-09-14T07:22:10.882Z,19.63
2022-09-14T07:24:40.264Z,19.73
2022-09-14T07:27:10.982Z,19.88
2022-09-14T07:29:40.343Z,20.20
2022-09-14T07:32:09.822Z,20.36
2022-09-14T07:34:39.268Z,20.53
2022-09-14T07:37:08.767Z,20.76
2022-09-14T07:39:38.139Z,20.92
2022-09-14T07:42:08.312Z,21.04
2022-09-14T07:44:39.106Z,21.18
2022-09-14T07:47:08.590Z,21.31
2022-09-14T07:49:37.980Z,21.37
2022-09-14T07:52:08.813Z,21.38
2022-09-14T07:54:38.355Z,21.49
2022-09-14T07:57:07.871Z,21.58
2022-09-14T07:59:38.748Z,21.64
2022-09-14T08:02:11.114Z,21.82
2022-09-14T08:04:40.636Z,21.89
2022-09-14T08:07:10.597Z,21.94
2022-09-14T08:09:40.338Z,22.07
2022-09-14T08:12:09.752Z,22.17
2022-09-14T08:14:40.522Z,22.11
2022-09-14T08:17:10.777Z,22.14
2022-09-14T08:19:41.199Z,22.19
2022-09-14T08:22:10.743Z,22.26
2022-09-14T08:24:40.281Z,22.33
2022-09-14T08:27:12.330Z,22.43
2022-09-14T08:29:43.045Z,22.40
2022-09-14T08:32:13.739Z,22.54
2022-09-14T08:34:43.188Z,22.61
2022-09-14T08:37:13.055Z,22.72
2022-09-14T08:39:42.412Z,22.78
2022-09-14T08:42:19.596Z,22.79
2022-09-14T08:44:57.469Z,22.90
2022-09-14T08:47:32.230Z,23.04
2022-09-14T08:50:07.400Z,23.20
2022-09-14T08:52:42.501Z,23.25
2022-09-14T08:55:32.346Z,23.37
2022-09-14T08:58:15.382Z,23.49
2022-09-14T09:00:54.080Z,23.63
2022-09-14T09:03:58.963Z,23.85
2022-09-14T09:06:39.420Z,23.93
2022-09-14T09:09:24.764Z,24.11
2022-09-14T09:11:56.877Z,24.25
2022-09-14T09:14:35.141Z,24.36
2022-09-14T09:17:15.294Z,24.38
2022-09-14T09:20:03.810Z,24.41
2022-09-14T09:22:43.102Z,24.37
2022-09-14T09:25:42.518Z,24.39
2022-09-14T09:28:14.343Z,24.32
2022-09-14T09:30:45.476Z,24.24
2022-09-14T09:33:21.704Z,24.17
2022-09-14T09:36:09.815Z,24.22
2022-09-14T09:38:39.187Z,24.24
2022-09-14T09:41:20.753Z,24.32
2022-09-14T09:44:03.056Z,24.44
2022-09-14T09:46:37.316Z,24.40
2022-09-14T09:49:26.025Z,24.41
2022-09-14T09:51:56.505Z,24.40
2022-09-14T09:54:31.496Z,24.33
2022-09-14T09:57:04.895Z,24.39
2022-09-14T09:59:40.885Z,24.41
2022-09-14T10:02:28.119Z,24.38
2022-09-14T10:05:04.057Z,24.52
2022-09-14T10:07:38.100Z,24.63
2022-09-14T10:10:11.089Z,24.69
2022-09-14T10:12:48.297Z,24.77
2022-09-14T10:15:22.972Z,24.77
2022-09-14T10:18:04.805Z,24.79
2022-09-14T10:20:37.261Z,24.73
2022-09-14T10:23:27.401Z,24.76
2022-09-14T10:26:27.457Z,24.73
2022-09-14T10:29:35.110Z,24.80
2022-09-14T10:32:18.063Z,24.85
2022-09-14T10:34:47.591Z,24.85
2022-09-14T10:37:35.904Z,24.75
2022-09-14T10:40:17.482Z,24.86
2022-09-14T10:43:03.933Z,24.93
2022-09-14T10:45:40.901Z,25.01
2022-09-14T10:49:11.181Z,25.08
2022-09-14T10:51:58.846Z,25.16
2022-09-14T10:55:00.365Z,25.30
2022-09-14T10:57:47.439Z,25.42
2022-09-14T11:00:21.298Z,25.37
2022-09-14T11:03:19.158Z,25.41
2022-09-14T11:06:06.842Z,25.53
2022-09-14T11:08:46.411Z,25.63
2022-09-14T11:11:42.293Z,25.77
2022-09-14T11:14:48.834Z,25.91
2022-09-14T11:17:55.149Z,26.05
2022-09-14T11:20:42.750Z,26.08
2022-09-14T11:23:31.802Z,26.05
2022-09-14T11:26:05.636Z,26.19
2022-09-14T11:28:45.613Z,26.11
2022-09-14T11:31:27.694Z,26.14
2022-09-14T11:34:05.851Z,26.11
2022-09-14T11:36:44.509Z,26.06
2022-09-14T11:39:23.932Z,26.13
2022-09-14T11:42:00.723Z,26.17
2022-09-14T11:44:37.664Z,26.24
2022-09-14T11:47:15.412Z,26.39
2022-09-14T11:50:00.000Z,26.58
2022-09-14T11:52:33.203Z,26.72
2022-09-14T11:55:10.836Z,26.87
2022-09-14T11:57:40.661Z,26.91
2022-09-14T12:01:06.895Z,27.19
2022-09-14T12:04:15.585Z,27.39
2022-09-14T12:06:57.755Z,27.47
2022-09-14T12:09:46.161Z,27.44
2022-09-14T12:12:39.191Z,27.49
2022-09-14T12:15:33.451Z,27.43
2022-09-14T12:18:24.614Z,27.14
2022-09-14T12:21:08.081Z,26.99
2022-09-14T12:23:51.616Z,26.87
2022-09-14T12:26:39.609Z,26.75
2022-09-14T12:29:33.755Z,26.63
2022-09-14T12:32:44.698Z,26.56
2022-09-14T12:35:48.037Z,26.38
2022-09-14T12:39:10.558Z,26.21
2022-09-14T12:42:26.540Z,26.07
2022-09-14T12:44:56.418Z,26.04
2022-09-14T12:47:51.894Z,26.04
2022-09-14T12:50:23.222Z,25.75
2022-09-14T12:53:22.748Z,25.56
2022-09-14T12:56:04.836Z,25.45
2022-09-14T12:58:59.814Z,25.36
2022-09-14T13:01:45.317Z,25.30
2022-09-14T13:04:26.134Z,25.21
2022-09-14T13:06:59.043Z,25.19
2022-09-14T13:09:31.931Z,25.25
2022-09-14T13:12:07.323Z,25.24
2022-09-14T13:14:59.446Z,25.22
2022-09-14T13:17:29.739Z,25.16
2022-09-14T13:20:03.622Z,25.08
2022-09-14T13:22:34.426Z,25.03
2022-09-14T13:25:03.981Z,24.98
2022-09-14T13:27:37.844Z,24.98
2022-09-14T13:30:20.750Z,24.96
2022-09-14T13:32:54.756Z,24.95
2022-09-14T13:35:36.569Z,25.01
2022-09-14T13:38:15.937Z,25.13
2022-09-14T13:40:49.049Z,25.21
2022-09-14T13:43:22.186Z,25.10
2022-09-14T13:45:52.841Z,25.00
2022-09-14T13:48:22.933Z,24.92
2022-09-14T13:50:53.474Z,24.93
2022-09-14T13:53:48.538Z,24.94
2022-09-14T13:56:30.974Z,24.89
2022-09-14T13:59:21.529Z,24.89
2022-09-14T14:02:02.125Z,24.84
2022-09-14T14:04:36.736Z,24.81
2022-09-14T14:07:21.144Z,24.80
2022-09-14T14:09:56.714Z,24.70
2022-09-14T14:12:30.205Z,24.71
2022-09-14T14:15:09.294Z,24.69
2022-09-14T14:17:41.133Z,24.66
2022-09-14T14:20:34.959Z,24.60
2022-09-14T14:23:21.729Z,24.61
2022-09-14T14:25:54.322Z,24.56
2022-09-14T14:28:30.032Z,24.60
2022-09-14T14:31:08.507Z,24.60
2022-09-14T14:33:47.113Z,24.46
2022-09-14T14:36:16.560Z,24.36
2022-09-14T14:38:47.922Z,24.24
2022-09-14T14:41:22.427Z,24.14
2022-09-14T14:43:51.955Z,24.05
2022-09-14T14:46:22.950Z,23.95
2022-09-14T14:48:53.172Z,23.88
2022-09-14T14:51:22.705Z,23.75
2022-09-14T14:53:52.147Z,23.66
2022-09-14T14:56:21.638Z,23.45
2022-09-14T14:58:51.211Z,23.19
2022-09-14T15:01:22.969Z,23.00
2022-09-14T15:03:52.507Z,22.61
2022-09-14T15:06:27.192Z,22.35
2022-09-14T15:08:57.867Z,22.09
2022-09-14T15:11:27.313Z,21.92
2022-09-14T15:13:56.718Z,21.75
2022-09-14T15:16:30.144Z,21.52
2022-09-14T15:18:59.718Z,21.33
2022-09-14T15:21:29.208Z,21.15
2022-09-14T15:23:58.882Z,20.97
2022-09-14T15:26:28.336Z,20.85
2022-09-14T15:28:57.808Z,20.76
2022-09-14T15:31:29.252Z,20.61
2022-09-14T15:33:59.540Z,20.51
2022-09-14T15:36:47.758Z,20.41
2022-09-14T15:39:17.799Z,20.32
2022-09-14T15:41:47.181Z,20.15
2022-09-14T15:44:16.805Z,20.04
2022-09-14T15:46:48.156Z,19.74
2022-09-14T15:49:21.664Z,19.51
2022-09-14T15:51:54.462Z,19.32
2022-09-14T15:54:32.380Z,19.17
2022-09-14T15:57:03.426Z,19.03
2022-09-14T15:59:33.756Z,18.96
2022-09-14T16:02:04.884Z,18.93
2022-09-14T16:04:37.632Z,18.88
2022-09-14T16:07:09.806Z,18.86
2022-09-14T16:09:41.126Z,18.83
2022-09-14T16:12:13.332Z,18.79
2022-09-14T16:14:43.059Z,18.77
2022-09-14T16:17:13.878Z,18.79
2022-09-14T16:19:43.245Z,18.78
2022-09-14T16:22:12.632Z,18.81
2022-09-14T16:24:42.005Z,18.84
2022-09-14T16:27:11.647Z,18.90
2022-09-14T16:29:41.131Z,18.94
2022-09-14T16:32:10.569Z,18.96
2022-09-14T16:34:41.364Z,18.98
2022-09-14T16:37:10.776Z,19.07
2022-09-14T16:39:40.988Z,19.09
2022-09-14T16:42:10.373Z,19.05
2022-09-14T16:44:39.734Z,19.10
2022-09-14T16:47:09.129Z,19.09
2022-09-14T16:49:39.881Z,19.02
2022-09-14T16:52:09.296Z,19.05
2022-09-14T16:54:38.702Z,18.99
2022-09-14T16:57:08.080Z,18.98
2022-09-14T17:00:08.570Z,18.84
2022-09-14T17:02:37.966Z,18.82
2022-09-14T17:05:10.509Z,18.76
2022-09-14T17:07:39.871Z,18.72
2022-09-14T17:10:10.823Z,18.74
2022-09-14T17:12:40.235Z,18.71
2022-09-14T17:15:11.977Z,18.65
2022-09-14T17:17:41.657Z,18.56
2022-09-14T17:20:12.519Z,18.51
2022-09-14T17:22:41.924Z,18.46
2022-09-14T17:25:16.188Z,18.42
2022-09-14T17:27:46.382Z,18.43
2022-09-14T17:30:16.130Z,18.39
2022-09-14T17:32:45.528Z,18.41
2022-09-14T17:35:16.745Z,18.47
2022-09-14T17:37:46.153Z,18.60
2022-09-14T17:40:15.770Z,18.51
2022-09-14T17:42:45.201Z,18.44
2022-09-14T17:45:14.787Z,18.43
2022-09-14T17:47:44.215Z,18.37
2022-09-14T17:50:15.282Z,18.34
2022-09-14T17:52:44.645Z,18.35
2022-09-14T17:55:14.069Z,18.37
2022-09-14T17:57:43.740Z,18.33
2022-09-14T18:00:15.308Z,18.31
2022-09-14T18:02:44.934Z,18.29
2022-09-14T18:05:15.896Z,18.31
2022-09-14T18:07:45.340Z,18.31
2022-09-14T18:10:17.553Z,18.32
2022-09-14T18:12:47.288Z,18.29
2022-09-14T18:15:18.436Z,18.29
2022-09-14T18:17:48.070Z,18.38
2022-09-14T18:20:19.234Z,18.36
2022-09-14T18:22:48.612Z,18.36
2022-09-14T18:25:18.136Z,18.39
2022-09-14T18:27:47.509Z,18.41
2022-09-14T18:30:17.640Z,18.41
2022-09-14T18:32:47.133Z,18.43
2022-09-14T18:35:18.245Z,18.36
2022-09-14T18:37:47.633Z,18.38
2022-09-14T18:40:20.274Z,18.33
2022-09-14T18:42:49.699Z,18.28
2022-09-14T18:45:19.064Z,18.28
2022-09-14T18:47:48.706Z,18.28
2022-09-14T18:50:20.029Z,18.22
2022-09-14T18:52:49.462Z,18.19
2022-09-14T18:55:19.340Z,18.15
2022-09-14T18:57:49.576Z,18.14
2022-09-14T19:00:20.213Z,18.15
2022-09-14T19:02:53.820Z,18.15
2022-09-14T19:05:27.684Z,18.16
2022-09-14T19:07:57.296Z,18.17
2022-09-14T19:10:26.914Z,18.16
2022-09-14T19:12:56.286Z,18.12
2022-09-14T19:15:27.732Z,18.18
2022-09-14T19:18:00.858Z,18.09
2022-09-14T19:20:55.146Z,18.08
2022-09-14T19:23:21.114Z,18.13
2022-09-14T19:25:50.473Z,18.10
2022-09-14T19:28:19.866Z,18.01
2022-09-14T19:30:50.009Z,17.95
2022-09-14T19:33:19.489Z,17.90
2022-09-14T19:35:50.225Z,17.83
2022-09-14T19:38:19.567Z,17.76
2022-09-14T19:40:53.333Z,17.67
2022-09-14T19:43:22.768Z,17.57
2022-09-14T19:45:52.172Z,17.46
2022-09-14T19:48:21.603Z,17.35
2022-09-14T19:50:52.352Z,17.25
2022-09-14T19:53:21.793Z,17.16
2022-09-14T19:55:51.127Z,17.09
2022-09-14T19:58:21.959Z,17.03
2022-09-14T20:00:55.289Z,16.97
2022-09-14T20:03:25.650Z,16.92
2022-09-14T20:06:02.257Z,16.94
2022-09-14T20:08:34.050Z,16.83
2022-09-14T20:11:08.104Z,16.75
2022-09-14T20:13:39.245Z,16.68
2022-09-14T20:16:13.553Z,16.62
2022-09-14T20:18:44.327Z,16.57
2022-09-14T20:21:18.641Z,16.56
2022-09-14T20:24:11.529Z,16.57
2022-09-14T20:26:38.370Z,16.62
2022-09-14T20:29:07.791Z,16.63
2022-09-14T20:31:37.465Z,16.63
2022-09-14T20:34:07.265Z,16.62
2022-09-14T20:36:38.720Z,16.62
2022-09-14T20:39:08.655Z,16.63
2022-09-14T20:41:38.308Z,16.69
2022-09-14T20:44:08.105Z,16.74
2022-09-14T20:46:40.905Z,16.76
2022-09-14T20:49:13.495Z,16.77
2022-09-14T20:51:44.712Z,16.77
2022-09-14T20:54:18.041Z,16.76
2022-09-14T20:56:47.582Z,16.78
2022-09-14T20:59:19.932Z,16.80
2022-09-14T21:01:51.487Z,16.78
2022-09-14T21:04:25.804Z,16.78
2022-09-14T21:06:57.607Z,16.76
2022-09-14T21:09:27.782Z,16.77
2022-09-14T21:11:57.129Z,16.78
2022-09-14T21:14:26.864Z,16.76
2022-09-14T21:16:58.476Z,16.78
2022-09-14T21:19:30.249Z,16.81
2022-09-14T21:22:00.966Z,16.93
2022-09-14T21:24:31.048Z,16.93
2022-09-14T21:27:00.461Z,16.96
2022-09-14T21:29:30.028Z,16.96
2022-09-14T21:31:59.372Z,17.00
2022-09-14T21:34:28.998Z,17.00
2022-09-14T21:36:59.990Z,16.96
2022-09-14T21:39:29.446Z,16.94
2022-09-14T21:41:59.915Z,16.93
2022-09-14T21:44:31.302Z,16.90
2022-09-14T21:47:01.470Z,16.89
2022-09-14T21:49:31.194Z,16.91
2022-09-14T21:52:02.121Z,16.94
2022-09-14T21:54:31.665Z,16.95
2022-09-14T21:57:01.062Z,16.93
2022-09-14T21:59:30.442Z,16.99
2022-09-14T22:01:59.863Z,17.01
2022-09-14T22:04:29.278Z,17.10
2022-09-14T22:06:59.286Z,17.13
2022-09-14T22:09:30.732Z,17.13
2022-09-14T22:12:00.137Z,17.20
2022-09-14T22:14:30.737Z,17.22
2022-09-14T22:17:00.087Z,17.34
2022-09-14T22:19:32.394Z,17.34
2022-09-14T22:22:02.342Z,17.47
2022-09-14T22:24:38.644Z,17.48
2022-09-14T22:27:09.030Z,17.44
2022-09-14T22:29:41.721Z,17.45
2022-09-14T22:32:11.950Z,17.44
2022-09-14T22:34:45.511Z,17.43
2022-09-14T22:37:17.203Z,17.46
2022-09-14T22:39:48.093Z,17.45
2022-09-14T22:42:17.549Z,17.43
2022-09-14T22:44:46.889Z,17.41
2022-09-14T22:47:16.258Z,17.47
2022-09-14T22:49:45.642Z,17.54
2022-09-14T22:52:15.048Z,17.55
2022-09-14T22:54:44.424Z,17.64
2022-09-14T22:57:15.210Z,17.67
2022-09-14T22:59:44.604Z,17.64
2022-09-14T23:02:13.994Z,17.68
2022-09-14T23:04:43.410Z,17.73
2022-09-14T23:07:12.826Z,17.72
2022-09-14T23:09:42.405Z,17.77
2022-09-14T23:12:11.849Z,17.76
2022-09-14T23:14:42.603Z,17.78
2022-09-14T23:17:13.035Z,17.81
2022-09-14T23:19:42.458Z,17.82
2022-09-14T23:22:12.012Z,17.81
2022-09-14T23:24:41.817Z,17.74
2022-09-14T23:27:11.385Z,17.75
2022-09-14T23:29:42.195Z,17.73
2022-09-14T23:32:11.636Z,17.74
2022-09-14T23:34:41.112Z,17.70
2022-09-14T23:37:10.690Z,17.68
2022-09-14T23:39:40.851Z,17.73
2022-09-14T23:42:10.397Z,17.70
2022-09-14T23:44:39.752Z,17.67
2022-09-14T23:47:10.473Z,17.65
2022-09-14T23:49:39.814Z,17.66
2022-09-14T23:52:09.194Z,17.73
2022-09-14T23:54:38.562Z,17.71
2022-09-14T23:57:08.139Z,17.75
2022-09-14T23:59:37.521Z,17.80
